sensor_id;sensor_type;location;lat;lon;timestamp;P1;durP1;ratioP1;P2;durP2;ratioP2
65328;SDS011;51941;52.210;5.158;2023-08-01T00:00:16;3.35;;;1.80;;
65328;SDS011;51941;52.210;5.158;2023-08-01T00:02:44;4.53;;;1.85;;
65328;SDS011;51941;52.210;5.158;2023-08-01T00:05:11;3.10;;;1.98;;
65328;SDS011;51941;52.210;5.158;2023-08-01T00:07:37;5.35;;;2.08;;
65328;SDS011;51941;52.210;5.158;2023-08-01T00:10:04;2.70;;;1.75;;
65328;SDS011;51941;52.210;5.158;2023-08-01T00:12:33;3.28;;;1.85;;
65328;SDS011;51941;52.210;5.158;2023-08-01T00:15:00;4.93;;;1.83;;
65328;SDS011;51941;52.210;5.158;2023-08-01T00:17:27;7.00;;;1.98;;
65328;SDS011;51941;52.210;5.158;2023-08-01T00:19:54;6.05;;;1.92;;
65328;SDS011;51941;52.210;5.158;2023-08-01T00:22:21;3.70;;;1.83;;
65328;SDS011;51941;52.210;5.158;2023-08-01T00:24:47;6.15;;;2.05;;
65328;SDS011;51941;52.210;5.158;2023-08-01T00:27:14;7.70;;;1.98;;
65328;SDS011;51941;52.210;5.158;2023-08-01T00:29:43;7.25;;;1.98;;
65328;SDS011;51941;52.210;5.158;2023-08-01T00:32:09;7.50;;;1.83;;
65328;SDS011;51941;52.210;5.158;2023-08-01T00:34:36;5.32;;;1.92;;
65328;SDS011;51941;52.210;5.158;2023-08-01T00:37:03;6.32;;;2.20;;
65328;SDS011;51941;52.210;5.158;2023-08-01T00:39:32;8.73;;;2.05;;
65328;SDS011;51941;52.210;5.158;2023-08-01T00:41:59;4.53;;;1.90;;
65328;SDS011;51941;52.210;5.158;2023-08-01T00:44:26;5.45;;;2.10;;
65328;SDS011;51941;52.210;5.158;2023-08-01T00:46:54;3.03;;;1.90;;
65328;SDS011;51941;52.210;5.158;2023-08-01T00:49:21;4.63;;;2.20;;
65328;SDS011;51941;52.210;5.158;2023-08-01T00:51:48;7.80;;;2.03;;
65328;SDS011;51941;52.210;5.158;2023-08-01T00:54:15;3.55;;;1.80;;
65328;SDS011;51941;52.210;5.158;2023-08-01T00:56:42;3.47;;;1.80;;
65328;SDS011;51941;52.210;5.158;2023-08-01T00:59:10;5.85;;;2.08;;
65328;SDS011;51941;52.210;5.158;2023-08-01T01:01:37;4.97;;;2.13;;
65328;SDS011;51941;52.210;5.158;2023-08-01T01:04:05;4.93;;;2.10;;
65328;SDS011;51941;52.210;5.158;2023-08-01T01:06:34;7.75;;;2.30;;
65328;SDS011;51941;52.210;5.158;2023-08-01T01:09:14;6.00;;;2.38;;
65328;SDS011;51941;52.210;5.158;2023-08-01T01:11:41;3.88;;;2.08;;
65328;SDS011;51941;52.210;5.158;2023-08-01T01:14:08;6.60;;;2.40;;
65328;SDS011;51941;52.210;5.158;2023-08-01T01:16:35;7.70;;;2.25;;
65328;SDS011;51941;52.210;5.158;2023-08-01T01:19:01;5.57;;;2.08;;
65328;SDS011;51941;52.210;5.158;2023-08-01T01:21:33;5.45;;;2.15;;
65328;SDS011;51941;52.210;5.158;2023-08-01T01:24:01;5.93;;;1.90;;
65328;SDS011;51941;52.210;5.158;2023-08-01T01:26:29;7.70;;;2.15;;
65328;SDS011;51941;52.210;5.158;2023-08-01T01:28:57;6.38;;;2.67;;
65328;SDS011;51941;52.210;5.158;2023-08-01T01:31:25;4.70;;;1.83;;
65328;SDS011;51941;52.210;5.158;2023-08-01T01:33:53;5.47;;;1.92;;
65328;SDS011;51941;52.210;5.158;2023-08-01T01:36:21;8.50;;;2.38;;
65328;SDS011;51941;52.210;5.158;2023-08-01T01:38:49;5.45;;;2.22;;
65328;SDS011;51941;52.210;5.158;2023-08-01T01:41:15;5.35;;;1.98;;
65328;SDS011;51941;52.210;5.158;2023-08-01T01:43:42;8.52;;;2.25;;
65328;SDS011;51941;52.210;5.158;2023-08-01T01:46:09;4.90;;;2.45;;
65328;SDS011;51941;52.210;5.158;2023-08-01T01:48:36;5.22;;;2.40;;
65328;SDS011;51941;52.210;5.158;2023-08-01T01:51:02;5.03;;;2.03;;
65328;SDS011;51941;52.210;5.158;2023-08-01T01:53:29;6.15;;;2.30;;
65328;SDS011;51941;52.210;5.158;2023-08-01T01:55:57;6.25;;;2.63;;
65328;SDS011;51941;52.210;5.158;2023-08-01T01:58:24;9.13;;;2.67;;
65328;SDS011;51941;52.210;5.158;2023-08-01T02:00:51;7.47;;;2.40;;
65328;SDS011;51941;52.210;5.158;2023-08-01T02:03:17;7.15;;;2.63;;
65328;SDS011;51941;52.210;5.158;2023-08-01T02:05:44;5.38;;;2.30;;
65328;SDS011;51941;52.210;5.158;2023-08-01T02:08:11;5.07;;;2.40;;
65328;SDS011;51941;52.210;5.158;2023-08-01T02:10:38;5.53;;;2.28;;
65328;SDS011;51941;52.210;5.158;2023-08-01T02:13:06;8.65;;;2.45;;
65328;SDS011;51941;52.210;5.158;2023-08-01T02:15:34;5.63;;;2.92;;
65328;SDS011;51941;52.210;5.158;2023-08-01T02:18:02;9.05;;;2.70;;
65328;SDS011;51941;52.210;5.158;2023-08-01T02:20:29;6.95;;;2.63;;
65328;SDS011;51941;52.210;5.158;2023-08-01T02:22:56;5.03;;;2.63;;
65328;SDS011;51941;52.210;5.158;2023-08-01T02:25:23;7.13;;;2.85;;
65328;SDS011;51941;52.210;5.158;2023-08-01T02:27:50;6.25;;;3.03;;
65328;SDS011;51941;52.210;5.158;2023-08-01T02:30:18;8.57;;;3.08;;
65328;SDS011;51941;52.210;5.158;2023-08-01T02:32:45;9.55;;;3.72;;
65328;SDS011;51941;52.210;5.158;2023-08-01T02:35:11;7.03;;;2.67;;
65328;SDS011;51941;52.210;5.158;2023-08-01T02:37:38;9.02;;;2.85;;
65328;SDS011;51941;52.210;5.158;2023-08-01T02:40:07;5.30;;;2.40;;
65328;SDS011;51941;52.210;5.158;2023-08-01T02:42:35;5.22;;;2.22;;
65328;SDS011;51941;52.210;5.158;2023-08-01T02:45:02;4.25;;;1.95;;
65328;SDS011;51941;52.210;5.158;2023-08-01T02:47:30;5.65;;;2.17;;
65328;SDS011;51941;52.210;5.158;2023-08-01T02:49:57;4.55;;;1.90;;
65328;SDS011;51941;52.210;5.158;2023-08-01T02:52:24;4.45;;;1.80;;
65328;SDS011;51941;52.210;5.158;2023-08-01T02:54:51;4.38;;;2.05;;
65328;SDS011;51941;52.210;5.158;2023-08-01T02:57:17;4.35;;;2.28;;
65328;SDS011;51941;52.210;5.158;2023-08-01T02:59:44;4.32;;;1.88;;
65328;SDS011;51941;52.210;5.158;2023-08-01T03:02:11;5.70;;;2.20;;
65328;SDS011;51941;52.210;5.158;2023-08-01T03:04:39;4.78;;;1.73;;
65328;SDS011;51941;52.210;5.158;2023-08-01T03:07:06;5.18;;;1.77;;
65328;SDS011;51941;52.210;5.158;2023-08-01T03:09:32;5.60;;;2.13;;
65328;SDS011;51941;52.210;5.158;2023-08-01T03:11:59;6.80;;;2.20;;
65328;SDS011;51941;52.210;5.158;2023-08-01T03:14:26;4.28;;;2.20;;
65328;SDS011;51941;52.210;5.158;2023-08-01T03:16:52;4.47;;;2.05;;
65328;SDS011;51941;52.210;5.158;2023-08-01T03:19:19;5.72;;;2.17;;
65328;SDS011;51941;52.210;5.158;2023-08-01T03:21:47;4.43;;;1.95;;
65328;SDS011;51941;52.210;5.158;2023-08-01T03:24:14;6.13;;;2.30;;
65328;SDS011;51941;52.210;5.158;2023-08-01T03:26:41;6.00;;;2.30;;
65328;SDS011;51941;52.210;5.158;2023-08-01T03:29:07;9.43;;;2.28;;
65328;SDS011;51941;52.210;5.158;2023-08-01T03:31:34;6.45;;;2.40;;
65328;SDS011;51941;52.210;5.158;2023-08-01T03:34:01;8.75;;;2.20;;
65328;SDS011;51941;52.210;5.158;2023-08-01T03:36:28;5.68;;;2.30;;
65328;SDS011;51941;52.210;5.158;2023-08-01T03:38:56;7.07;;;2.35;;
65328;SDS011;51941;52.210;5.158;2023-08-01T03:41:23;5.70;;;2.60;;
65328;SDS011;51941;52.210;5.158;2023-08-01T03:43:50;5.63;;;2.47;;
65328;SDS011;51941;52.210;5.158;2023-08-01T03:46:16;3.97;;;2.40;;
65328;SDS011;51941;52.210;5.158;2023-08-01T03:48:43;6.32;;;2.50;;
65328;SDS011;51941;52.210;5.158;2023-08-01T03:51:10;6.30;;;2.53;;
65328;SDS011;51941;52.210;5.158;2023-08-01T03:53:37;5.55;;;2.47;;
65328;SDS011;51941;52.210;5.158;2023-08-01T03:56:05;4.55;;;2.25;;
65328;SDS011;51941;52.210;5.158;2023-08-01T03:58:31;8.43;;;2.90;;
65328;SDS011;51941;52.210;5.158;2023-08-01T04:00:58;9.00;;;2.78;;
65328;SDS011;51941;52.210;5.158;2023-08-01T04:03:25;4.13;;;2.42;;
65328;SDS011;51941;52.210;5.158;2023-08-01T04:05:52;4.72;;;2.90;;
65328;SDS011;51941;52.210;5.158;2023-08-01T04:08:19;7.53;;;3.13;;
65328;SDS011;51941;52.210;5.158;2023-08-01T04:10:46;10.32;;;3.10;;
65328;SDS011;51941;52.210;5.158;2023-08-01T04:13:14;6.20;;;2.58;;
65328;SDS011;51941;52.210;5.158;2023-08-01T04:15:41;9.63;;;3.13;;
65328;SDS011;51941;52.210;5.158;2023-08-01T04:18:07;9.35;;;3.22;;
65328;SDS011;51941;52.210;5.158;2023-08-01T04:20:34;8.18;;;3.30;;
65328;SDS011;51941;52.210;5.158;2023-08-01T04:23:01;10.77;;;3.75;;
65328;SDS011;51941;52.210;5.158;2023-08-01T04:25:28;7.72;;;3.30;;
65328;SDS011;51941;52.210;5.158;2023-08-01T04:27:54;8.40;;;3.22;;
65328;SDS011;51941;52.210;5.158;2023-08-01T04:30:22;10.68;;;3.30;;
65328;SDS011;51941;52.210;5.158;2023-08-01T04:32:49;10.70;;;3.10;;
65328;SDS011;51941;52.210;5.158;2023-08-01T04:35:16;11.82;;;3.58;;
65328;SDS011;51941;52.210;5.158;2023-08-01T04:37:42;11.05;;;3.65;;
65328;SDS011;51941;52.210;5.158;2023-08-01T04:40:09;14.82;;;3.53;;
65328;SDS011;51941;52.210;5.158;2023-08-01T04:42:37;17.17;;;4.85;;
65328;SDS011;51941;52.210;5.158;2023-08-01T04:45:04;12.98;;;3.58;;
65328;SDS011;51941;52.210;5.158;2023-08-01T04:47:33;15.70;;;4.80;;
65328;SDS011;51941;52.210;5.158;2023-08-01T04:50:00;14.25;;;4.18;;
65328;SDS011;51941;52.210;5.158;2023-08-01T04:52:27;13.38;;;4.13;;
65328;SDS011;51941;52.210;5.158;2023-08-01T04:54:53;11.07;;;3.95;;
65328;SDS011;51941;52.210;5.158;2023-08-01T04:57:20;12.45;;;3.92;;
65328;SDS011;51941;52.210;5.158;2023-08-01T04:59:47;16.88;;;3.67;;
65328;SDS011;51941;52.210;5.158;2023-08-01T05:02:13;16.60;;;4.05;;
65328;SDS011;51941;52.210;5.158;2023-08-01T05:04:41;14.35;;;4.45;;
65328;SDS011;51941;52.210;5.158;2023-08-01T05:07:08;10.80;;;3.92;;
65328;SDS011;51941;52.210;5.158;2023-08-01T05:09:35;13.93;;;3.83;;
65328;SDS011;51941;52.210;5.158;2023-08-01T05:12:02;10.80;;;4.13;;
65328;SDS011;51941;52.210;5.158;2023-08-01T05:14:28;11.82;;;4.70;;
65328;SDS011;51941;52.210;5.158;2023-08-01T05:16:55;11.50;;;3.70;;
65328;SDS011;51941;52.210;5.158;2023-08-01T05:19:22;11.50;;;4.07;;
65328;SDS011;51941;52.210;5.158;2023-08-01T05:21:50;14.68;;;4.10;;
65328;SDS011;51941;52.210;5.158;2023-08-01T05:24:17;13.10;;;3.50;;
65328;SDS011;51941;52.210;5.158;2023-08-01T05:26:44;11.60;;;4.15;;
65328;SDS011;51941;52.210;5.158;2023-08-01T05:29:10;10.60;;;3.38;;
65328;SDS011;51941;52.210;5.158;2023-08-01T05:31:37;12.10;;;3.28;;
65328;SDS011;51941;52.210;5.158;2023-08-01T05:34:04;10.70;;;3.20;;
65328;SDS011;51941;52.210;5.158;2023-08-01T05:36:31;12.18;;;3.30;;
65328;SDS011;51941;52.210;5.158;2023-08-01T05:38:59;13.48;;;2.97;;
65328;SDS011;51941;52.210;5.158;2023-08-01T05:41:25;10.10;;;2.95;;
65328;SDS011;51941;52.210;5.158;2023-08-01T05:43:52;15.45;;;3.28;;
65328;SDS011;51941;52.210;5.158;2023-08-01T05:46:19;12.55;;;3.40;;
65328;SDS011;51941;52.210;5.158;2023-08-01T05:48:46;10.95;;;3.65;;
65328;SDS011;51941;52.210;5.158;2023-08-01T05:51:12;9.90;;;3.00;;
65328;SDS011;51941;52.210;5.158;2023-08-01T05:53:39;14.88;;;3.47;;
65328;SDS011;51941;52.210;5.158;2023-08-01T05:56:07;9.30;;;3.08;;
65328;SDS011;51941;52.210;5.158;2023-08-01T05:58:34;9.93;;;2.88;;
65328;SDS011;51941;52.210;5.158;2023-08-01T06:01:01;6.15;;;2.60;;
65328;SDS011;51941;52.210;5.158;2023-08-01T06:03:29;6.80;;;2.58;;
65328;SDS011;51941;52.210;5.158;2023-08-01T06:05:55;9.48;;;2.85;;
65328;SDS011;51941;52.210;5.158;2023-08-01T06:08:22;9.13;;;3.00;;
65328;SDS011;51941;52.210;5.158;2023-08-01T06:10:49;9.15;;;2.63;;
65328;SDS011;51941;52.210;5.158;2023-08-01T06:13:17;11.02;;;2.92;;
65328;SDS011;51941;52.210;5.158;2023-08-01T06:15:44;6.47;;;2.47;;
65328;SDS011;51941;52.210;5.158;2023-08-01T06:18:11;9.75;;;2.45;;
65328;SDS011;51941;52.210;5.158;2023-08-01T06:20:38;7.82;;;2.85;;
65328;SDS011;51941;52.210;5.158;2023-08-01T06:23:04;7.85;;;2.30;;
65328;SDS011;51941;52.210;5.158;2023-08-01T06:25:31;7.25;;;2.65;;
65328;SDS011;51941;52.210;5.158;2023-08-01T06:27:58;9.05;;;2.30;;
65328;SDS011;51941;52.210;5.158;2023-08-01T06:30:27;10.30;;;2.17;;
65328;SDS011;51941;52.210;5.158;2023-08-01T06:32:53;4.68;;;1.88;;
65328;SDS011;51941;52.210;5.158;2023-08-01T06:35:20;6.03;;;2.40;;
65328;SDS011;51941;52.210;5.158;2023-08-01T06:37:47;9.35;;;2.53;;
65328;SDS011;51941;52.210;5.158;2023-08-01T06:40:13;5.22;;;2.20;;
65328;SDS011;51941;52.210;5.158;2023-08-01T06:42:40;10.35;;;2.35;;
65328;SDS011;51941;52.210;5.158;2023-08-01T06:45:08;8.75;;;2.05;;
65328;SDS011;51941;52.210;5.158;2023-08-01T06:47:36;4.13;;;1.60;;
65328;SDS011;51941;52.210;5.158;2023-08-01T06:50:03;5.25;;;1.80;;
65328;SDS011;51941;52.210;5.158;2023-08-01T06:52:31;6.43;;;2.00;;
65328;SDS011;51941;52.210;5.158;2023-08-01T06:54:57;5.22;;;1.92;;
65328;SDS011;51941;52.210;5.158;2023-08-01T06:57:24;6.70;;;2.05;;
65328;SDS011;51941;52.210;5.158;2023-08-01T06:59:51;7.18;;;1.67;;
65328;SDS011;51941;52.210;5.158;2023-08-01T07:02:18;9.80;;;2.03;;
65328;SDS011;51941;52.210;5.158;2023-08-01T07:04:47;7.75;;;2.00;;
65328;SDS011;51941;52.210;5.158;2023-08-01T07:07:13;7.27;;;2.20;;
65328;SDS011;51941;52.210;5.158;2023-08-01T07:09:40;11.48;;;2.15;;
65328;SDS011;51941;52.210;5.158;2023-08-01T07:12:07;6.70;;;1.90;;
65328;SDS011;51941;52.210;5.158;2023-08-01T07:14:34;8.02;;;2.22;;
65328;SDS011;51941;52.210;5.158;2023-08-01T07:17:01;7.68;;;1.90;;
65328;SDS011;51941;52.210;5.158;2023-08-01T07:19:27;6.15;;;1.80;;
65328;SDS011;51941;52.210;5.158;2023-08-01T07:21:56;7.40;;;2.20;;
65328;SDS011;51941;52.210;5.158;2023-08-01T07:24:22;10.10;;;2.08;;
65328;SDS011;51941;52.210;5.158;2023-08-01T07:26:49;10.63;;;2.20;;
65328;SDS011;51941;52.210;5.158;2023-08-01T07:29:16;8.00;;;2.40;;
65328;SDS011;51941;52.210;5.158;2023-08-01T07:31:42;9.80;;;2.50;;
65328;SDS011;51941;52.210;5.158;2023-08-01T07:34:09;10.18;;;2.38;;
65328;SDS011;51941;52.210;5.158;2023-08-01T07:36:36;6.28;;;1.90;;
65328;SDS011;51941;52.210;5.158;2023-08-01T07:39:04;7.85;;;2.60;;
65328;SDS011;51941;52.210;5.158;2023-08-01T07:41:31;7.07;;;2.33;;
65328;SDS011;51941;52.210;5.158;2023-08-01T07:44:00;5.43;;;2.13;;
65328;SDS011;51941;52.210;5.158;2023-08-01T07:46:28;10.75;;;2.67;;
65328;SDS011;51941;52.210;5.158;2023-08-01T07:48:55;7.00;;;2.58;;
65328;SDS011;51941;52.210;5.158;2023-08-01T07:51:21;9.43;;;2.35;;
65328;SDS011;51941;52.210;5.158;2023-08-01T07:53:48;7.85;;;2.17;;
65328;SDS011;51941;52.210;5.158;2023-08-01T07:56:18;8.52;;;2.13;;
65328;SDS011;51941;52.210;5.158;2023-08-01T07:58:45;8.77;;;2.10;;
65328;SDS011;51941;52.210;5.158;2023-08-01T08:01:12;6.95;;;2.22;;
65328;SDS011;51941;52.210;5.158;2023-08-01T08:03:39;9.48;;;2.20;;
65328;SDS011;51941;52.210;5.158;2023-08-01T08:06:05;9.38;;;2.17;;
65328;SDS011;51941;52.210;5.158;2023-08-01T08:08:32;8.85;;;2.63;;
65328;SDS011;51941;52.210;5.158;2023-08-01T08:10:59;9.23;;;2.20;;
65328;SDS011;51941;52.210;5.158;2023-08-01T08:13:28;6.93;;;1.85;;
65328;SDS011;51941;52.210;5.158;2023-08-01T08:15:55;6.97;;;2.00;;
65328;SDS011;51941;52.210;5.158;2023-08-01T08:18:22;8.35;;;1.92;;
65328;SDS011;51941;52.210;5.158;2023-08-01T08:20:50;7.85;;;1.70;;
65328;SDS011;51941;52.210;5.158;2023-08-01T08:23:16;9.02;;;2.10;;
65328;SDS011;51941;52.210;5.158;2023-08-01T08:25:44;7.43;;;2.05;;
65328;SDS011;51941;52.210;5.158;2023-08-01T08:28:12;5.65;;;1.63;;
65328;SDS011;51941;52.210;5.158;2023-08-01T08:30:40;7.18;;;1.60;;
65328;SDS011;51941;52.210;5.158;2023-08-01T08:33:07;8.40;;;1.88;;
65328;SDS011;51941;52.210;5.158;2023-08-01T08:35:35;7.25;;;1.77;;
65328;SDS011;51941;52.210;5.158;2023-08-01T08:38:02;11.50;;;1.70;;
65328;SDS011;51941;52.210;5.158;2023-08-01T08:40:30;9.25;;;1.90;;
65328;SDS011;51941;52.210;5.158;2023-08-01T08:42:58;11.00;;;2.25;;
65328;SDS011;51941;52.210;5.158;2023-08-01T08:45:28;5.75;;;1.60;;
65328;SDS011;51941;52.210;5.158;2023-08-01T08:48:01;7.18;;;1.80;;
65328;SDS011;51941;52.210;5.158;2023-08-01T08:50:35;9.65;;;1.60;;
65328;SDS011;51941;52.210;5.158;2023-08-01T08:53:02;4.57;;;1.35;;
65328;SDS011;51941;52.210;5.158;2023-08-01T08:55:29;7.10;;;1.80;;
65328;SDS011;51941;52.210;5.158;2023-08-01T08:57:57;4.35;;;1.50;;
65328;SDS011;51941;52.210;5.158;2023-08-01T09:00:25;6.93;;;1.50;;
65328;SDS011;51941;52.210;5.158;2023-08-01T09:02:53;5.65;;;1.85;;
65328;SDS011;51941;52.210;5.158;2023-08-01T09:05:21;5.35;;;1.60;;
65328;SDS011;51941;52.210;5.158;2023-08-01T09:07:54;6.63;;;1.85;;
65328;SDS011;51941;52.210;5.158;2023-08-01T09:10:23;5.53;;;1.50;;
65328;SDS011;51941;52.210;5.158;2023-08-01T09:12:50;5.72;;;1.33;;
65328;SDS011;51941;52.210;5.158;2023-08-01T09:15:17;5.38;;;1.50;;
65328;SDS011;51941;52.210;5.158;2023-08-01T09:17:50;5.75;;;1.60;;
65328;SDS011;51941;52.210;5.158;2023-08-01T09:20:17;7.80;;;1.80;;
65328;SDS011;51941;52.210;5.158;2023-08-01T09:22:46;7.03;;;1.85;;
65328;SDS011;51941;52.210;5.158;2023-08-01T09:25:13;6.40;;;1.80;;
65328;SDS011;51941;52.210;5.158;2023-08-01T09:27:40;8.90;;;1.77;;
65328;SDS011;51941;52.210;5.158;2023-08-01T09:30:08;7.55;;;1.80;;
65328;SDS011;51941;52.210;5.158;2023-08-01T09:35:03;6.43;;;1.70;;
65328;SDS011;51941;52.210;5.158;2023-08-01T09:37:40;8.70;;;1.58;;
65328;SDS011;51941;52.210;5.158;2023-08-01T09:40:09;6.50;;;1.80;;
65328;SDS011;51941;52.210;5.158;2023-08-01T09:42:37;6.95;;;1.50;;
65328;SDS011;51941;52.210;5.158;2023-08-01T09:45:06;4.68;;;1.17;;
65328;SDS011;51941;52.210;5.158;2023-08-01T09:47:37;8.77;;;1.80;;
65328;SDS011;51941;52.210;5.158;2023-08-01T09:50:04;6.68;;;1.70;;
65328;SDS011;51941;52.210;5.158;2023-08-01T09:52:32;8.32;;;1.73;;
65328;SDS011;51941;52.210;5.158;2023-08-01T09:54:59;6.72;;;1.60;;
65328;SDS011;51941;52.210;5.158;2023-08-01T09:57:28;7.45;;;1.80;;
65328;SDS011;51941;52.210;5.158;2023-08-01T09:59:57;5.00;;;1.58;;
65328;SDS011;51941;52.210;5.158;2023-08-01T10:02:26;6.07;;;1.77;;
65328;SDS011;51941;52.210;5.158;2023-08-01T10:04:57;5.38;;;1.40;;
65328;SDS011;51941;52.210;5.158;2023-08-01T10:07:27;8.60;;;1.75;;
65328;SDS011;51941;52.210;5.158;2023-08-01T10:09:58;5.70;;;1.40;;
65328;SDS011;51941;52.210;5.158;2023-08-01T10:12:26;7.47;;;1.60;;
65328;SDS011;51941;52.210;5.158;2023-08-01T10:17:22;4.68;;;1.23;;
65328;SDS011;51941;52.210;5.158;2023-08-01T10:19:51;4.38;;;1.13;;
65328;SDS011;51941;52.210;5.158;2023-08-01T10:22:21;5.38;;;1.25;;
65328;SDS011;51941;52.210;5.158;2023-08-01T10:24:49;5.38;;;1.52;;
65328;SDS011;51941;52.210;5.158;2023-08-01T10:27:18;10.30;;;1.50;;
65328;SDS011;51941;52.210;5.158;2023-08-01T10:29:57;6.55;;;1.45;;
65328;SDS011;51941;52.210;5.158;2023-08-01T10:32:27;4.35;;;1.40;;
65328;SDS011;51941;52.210;5.158;2023-08-01T10:34:57;5.10;;;1.48;;
65328;SDS011;51941;52.210;5.158;2023-08-01T10:37:24;8.23;;;1.50;;
65328;SDS011;51941;52.210;5.158;2023-08-01T10:39:56;7.60;;;1.42;;
65328;SDS011;51941;52.210;5.158;2023-08-01T10:42:23;5.20;;;1.48;;
65328;SDS011;51941;52.210;5.158;2023-08-01T10:44:50;6.07;;;1.40;;
65328;SDS011;51941;52.210;5.158;2023-08-01T10:47:26;5.10;;;1.60;;
65328;SDS011;51941;52.210;5.158;2023-08-01T10:49:53;8.63;;;1.70;;
65328;SDS011;51941;52.210;5.158;2023-08-01T10:52:20;8.70;;;2.13;;
65328;SDS011;51941;52.210;5.158;2023-08-01T10:54:55;6.65;;;1.63;;
65328;SDS011;51941;52.210;5.158;2023-08-01T10:57:23;7.20;;;1.70;;
65328;SDS011;51941;52.210;5.158;2023-08-01T10:59:50;6.25;;;1.80;;
65328;SDS011;51941;52.210;5.158;2023-08-01T11:02:20;9.20;;;1.90;;
65328;SDS011;51941;52.210;5.158;2023-08-01T11:04:56;6.97;;;1.70;;
65328;SDS011;51941;52.210;5.158;2023-08-01T11:07:24;7.65;;;1.90;;
65328;SDS011;51941;52.210;5.158;2023-08-01T11:10:02;6.70;;;1.65;;
65328;SDS011;51941;52.210;5.158;2023-08-01T11:12:30;7.40;;;1.50;;
65328;SDS011;51941;52.210;5.158;2023-08-01T11:14:58;5.22;;;1.25;;
65328;SDS011;51941;52.210;5.158;2023-08-01T11:17:26;4.47;;;1.33;;
65328;SDS011;51941;52.210;5.158;2023-08-01T11:20:01;6.03;;;1.50;;
65328;SDS011;51941;52.210;5.158;2023-08-01T11:22:29;8.40;;;1.85;;
65328;SDS011;51941;52.210;5.158;2023-08-01T11:24:56;3.90;;;1.17;;
65328;SDS011;51941;52.210;5.158;2023-08-01T11:27:23;4.50;;;1.58;;
65328;SDS011;51941;52.210;5.158;2023-08-01T11:29:50;5.97;;;1.20;;
65328;SDS011;51941;52.210;5.158;2023-08-01T11:32:17;5.88;;;1.45;;
65328;SDS011;51941;52.210;5.158;2023-08-01T11:34:45;4.88;;;1.48;;
65328;SDS011;51941;52.210;5.158;2023-08-01T11:37:14;5.20;;;1.33;;
65328;SDS011;51941;52.210;5.158;2023-08-01T11:39:42;4.30;;;1.20;;
65328;SDS011;51941;52.210;5.158;2023-08-01T11:42:13;4.78;;;1.20;;
65328;SDS011;51941;52.210;5.158;2023-08-01T11:44:41;5.47;;;1.20;;
65328;SDS011;51941;52.210;5.158;2023-08-01T11:47:10;5.38;;;1.35;;
65328;SDS011;51941;52.210;5.158;2023-08-01T11:49:37;7.35;;;1.85;;
65328;SDS011;51941;52.210;5.158;2023-08-01T11:52:05;4.45;;;1.20;;
65328;SDS011;51941;52.210;5.158;2023-08-01T11:54:42;7.20;;;1.27;;
65328;SDS011;51941;52.210;5.158;2023-08-01T11:57:10;6.57;;;1.30;;
65328;SDS011;51941;52.210;5.158;2023-08-01T11:59:45;7.90;;;1.80;;
65328;SDS011;51941;52.210;5.158;2023-08-01T12:02:19;6.13;;;1.65;;
65328;SDS011;51941;52.210;5.158;2023-08-01T12:04:47;6.63;;;1.33;;
65328;SDS011;51941;52.210;5.158;2023-08-01T12:07:13;4.93;;;1.30;;
65328;SDS011;51941;52.210;5.158;2023-08-01T12:09:43;5.18;;;1.70;;
65328;SDS011;51941;52.210;5.158;2023-08-01T12:12:10;7.22;;;1.63;;
65328;SDS011;51941;52.210;5.158;2023-08-01T12:14:40;3.97;;;1.50;;
65328;SDS011;51941;52.210;5.158;2023-08-01T12:17:07;6.80;;;1.65;;
65328;SDS011;51941;52.210;5.158;2023-08-01T12:19:33;3.95;;;1.08;;
65328;SDS011;51941;52.210;5.158;2023-08-01T12:22:00;6.93;;;1.80;;
65328;SDS011;51941;52.210;5.158;2023-08-01T12:24:27;7.80;;;1.70;;
65328;SDS011;51941;52.210;5.158;2023-08-01T12:26:55;7.45;;;1.55;;
65328;SDS011;51941;52.210;5.158;2023-08-01T12:29:22;2.70;;;1.10;;
65328;SDS011;51941;52.210;5.158;2023-08-01T12:31:49;5.72;;;1.60;;
65328;SDS011;51941;52.210;5.158;2023-08-01T12:34:16;4.55;;;1.13;;
65328;SDS011;51941;52.210;5.158;2023-08-01T12:36:43;4.93;;;1.10;;
65328;SDS011;51941;52.210;5.158;2023-08-01T12:39:09;4.97;;;1.20;;
65328;SDS011;51941;52.210;5.158;2023-08-01T12:41:37;5.75;;;1.20;;
65328;SDS011;51941;52.210;5.158;2023-08-01T12:44:05;6.10;;;1.30;;
65328;SDS011;51941;52.210;5.158;2023-08-01T12:46:32;5.70;;;1.20;;
65328;SDS011;51941;52.210;5.158;2023-08-01T12:48:59;6.30;;;1.67;;
65328;SDS011;51941;52.210;5.158;2023-08-01T12:51:25;5.22;;;1.33;;
65328;SDS011;51941;52.210;5.158;2023-08-01T12:53:52;3.50;;;1.33;;
65328;SDS011;51941;52.210;5.158;2023-08-01T12:56:19;4.18;;;1.00;;
65328;SDS011;51941;52.210;5.158;2023-08-01T12:58:46;4.63;;;1.15;;
65328;SDS011;51941;52.210;5.158;2023-08-01T13:01:14;5.20;;;1.20;;
65328;SDS011;51941;52.210;5.158;2023-08-01T13:03:40;5.38;;;1.23;;
65328;SDS011;51941;52.210;5.158;2023-08-01T13:06:10;3.38;;;1.10;;
65328;SDS011;51941;52.210;5.158;2023-08-01T13:08:37;3.88;;;1.05;;
65328;SDS011;51941;52.210;5.158;2023-08-01T13:11:09;4.13;;;1.25;;
65328;SDS011;51941;52.210;5.158;2023-08-01T13:13:37;11.45;;;1.90;;
65328;SDS011;51941;52.210;5.158;2023-08-01T13:16:04;6.82;;;1.30;;
65328;SDS011;51941;52.210;5.158;2023-08-01T13:18:32;4.20;;;1.30;;
65328;SDS011;51941;52.210;5.158;2023-08-01T13:20:59;3.97;;;1.58;;
65328;SDS011;51941;52.210;5.158;2023-08-01T13:23:26;4.60;;;1.48;;
65328;SDS011;51941;52.210;5.158;2023-08-01T13:25:54;4.07;;;1.38;;
65328;SDS011;51941;52.210;5.158;2023-08-01T13:28:20;8.82;;;1.88;;
65328;SDS011;51941;52.210;5.158;2023-08-01T13:30:47;7.60;;;1.65;;
65328;SDS011;51941;52.210;5.158;2023-08-01T13:33:14;7.93;;;1.50;;
65328;SDS011;51941;52.210;5.158;2023-08-01T13:35:42;6.57;;;1.55;;
65328;SDS011;51941;52.210;5.158;2023-08-01T13:38:09;3.45;;;1.10;;
65328;SDS011;51941;52.210;5.158;2023-08-01T13:40:36;5.95;;;1.50;;
65328;SDS011;51941;52.210;5.158;2023-08-01T13:43:02;5.68;;;1.50;;
65328;SDS011;51941;52.210;5.158;2023-08-01T13:45:30;9.45;;;1.30;;
65328;SDS011;51941;52.210;5.158;2023-08-01T13:47:57;6.53;;;1.88;;
65328;SDS011;51941;52.210;5.158;2023-08-01T13:50:25;5.80;;;1.30;;
65328;SDS011;51941;52.210;5.158;2023-08-01T13:52:53;6.97;;;1.55;;
65328;SDS011;51941;52.210;5.158;2023-08-01T13:55:20;5.85;;;1.33;;
65328;SDS011;51941;52.210;5.158;2023-08-01T13:57:47;5.53;;;1.70;;
65328;SDS011;51941;52.210;5.158;2023-08-01T14:00:14;7.25;;;2.03;;
65328;SDS011;51941;52.210;5.158;2023-08-01T14:02:41;9.48;;;1.88;;
65328;SDS011;51941;52.210;5.158;2023-08-01T14:05:08;10.20;;;1.63;;
65328;SDS011;51941;52.210;5.158;2023-08-01T14:07:35;5.03;;;1.50;;
65328;SDS011;51941;52.210;5.158;2023-08-01T14:10:04;4.85;;;1.45;;
65328;SDS011;51941;52.210;5.158;2023-08-01T14:12:31;7.13;;;1.55;;
65328;SDS011;51941;52.210;5.158;2023-08-01T14:14:58;7.90;;;1.42;;
65328;SDS011;51941;52.210;5.158;2023-08-01T14:17:24;8.82;;;1.65;;
65328;SDS011;51941;52.210;5.158;2023-08-01T14:19:51;4.63;;;1.20;;
65328;SDS011;51941;52.210;5.158;2023-08-01T14:22:18;5.45;;;1.30;;
65328;SDS011;51941;52.210;5.158;2023-08-01T14:24:45;6.07;;;1.60;;
65328;SDS011;51941;52.210;5.158;2023-08-01T14:27:13;5.82;;;1.70;;
65328;SDS011;51941;52.210;5.158;2023-08-01T14:29:39;7.35;;;2.35;;
65328;SDS011;51941;52.210;5.158;2023-08-01T14:32:07;4.32;;;1.25;;
65328;SDS011;51941;52.210;5.158;2023-08-01T14:34:34;6.55;;;1.48;;
65328;SDS011;51941;52.210;5.158;2023-08-01T14:37:00;5.10;;;1.42;;
65328;SDS011;51941;52.210;5.158;2023-08-01T14:39:27;6.00;;;1.60;;
65328;SDS011;51941;52.210;5.158;2023-08-01T14:41:55;8.18;;;1.42;;
65328;SDS011;51941;52.210;5.158;2023-08-01T14:44:23;6.93;;;1.25;;
65328;SDS011;51941;52.210;5.158;2023-08-01T14:46:49;2.60;;;0.90;;
65328;SDS011;51941;52.210;5.158;2023-08-01T14:49:16;3.47;;;0.80;;
65328;SDS011;51941;52.210;5.158;2023-08-01T14:51:43;2.22;;;0.98;;